Time;durP1;ratioP1;P1;durP2;ratioP2;P2;SDS_P1;SDS_P2;PMS_P1;PMS_P2;Temp;Humidity;BMP_temperature;BMP_pressure;BME280_temperature;BME280_humidity;BME280_pressure;Samples;Min_cycle;Max_cycle;Signal;HPM_P1;HPM_P2
2022/08/02 00:01:49;;;;;;;9.55;5.07;;;16.60;99.90;;;;;;5039811;28;20056;-60
2022/08/02 00:04:15;;;;;;;11.00;5.18;;;16.70;99.90;;;;;;5028006;28;20076;-61
2022/08/02 00:06:41;;;;;;;10.15;5.63;;;16.60;99.90;;;;;;5033527;28;20025;-61
2022/08/02 00:09:06;;;;;;;7.30;4.97;;;16.70;99.90;;;;;;5029102;28;20100;-61
2022/08/02 00:11:32;;;;;;;12.13;5.00;;;16.70;99.90;;;;;;5034196;28;20053;-62
2022/08/02 00:13:58;;;;;;;9.90;5.18;;;16.60;99.90;;;;;;5037343;28;20111;-61
2022/08/02 00:16:24;;;;;;;8.02;4.50;;;16.70;99.90;;;;;;5036293;28;20437;-60
2022/08/02 00:18:49;;;;;;;9.70;5.30;;;16.70;99.90;;;;;;5046246;28;20021;-61
2022/08/02 00:21:15;;;;;;;6.80;4.78;;;16.70;99.90;;;;;;5033342;28;20724;-60
2022/08/02 00:23:40;;;;;;;10.25;4.70;;;16.60;99.90;;;;;;5031093;28;20708;-61
2022/08/02 00:26:06;;;;;;;11.43;4.82;;;16.50;99.90;;;;;;5032528;28;20056;-61
2022/08/02 00:28:32;;;;;;;10.55;5.43;;;16.50;99.90;;;;;;5035125;28;20080;-60
2022/08/02 00:30:58;;;;;;;9.88;5.22;;;16.50;99.90;;;;;;5034907;28;20032;-61
2022/08/02 00:33:24;;;;;;;8.25;5.10;;;16.40;99.90;;;;;;5031101;28;20037;-61
2022/08/02 00:35:49;;;;;;;10.00;5.55;;;16.40;99.90;;;;;;5032569;28;20025;-60
2022/08/02 00:38:15;;;;;;;7.82;5.00;;;16.40;99.90;;;;;;5033231;28;20036;-61
2022/08/02 00:40:46;;;;;;;8.55;4.80;;;16.40;99.90;;;;;;5038163;28;20112;-61
2022/08/02 00:43:12;;;;;;;8.88;4.40;;;16.50;99.90;;;;;;5033179;28;20452;-61
2022/08/02 00:45:39;;;;;;;11.13;4.50;;;16.40;99.90;;;;;;5035703;28;20048;-61
2022/08/02 00:48:07;;;;;;;6.00;3.67;;;16.50;99.90;;;;;;5039823;28;20516;-60
2022/08/02 00:50:34;;;;;;;8.88;4.32;;;16.40;99.90;;;;;;5029685;28;20029;-60
2022/08/02 00:52:59;;;;;;;8.60;4.45;;;16.50;99.90;;;;;;5031968;28;20034;-61
2022/08/02 00:55:26;;;;;;;7.13;3.80;;;16.40;99.90;;;;;;5028994;28;20084;-61
2022/08/02 00:57:52;;;;;;;6.93;4.00;;;16.40;99.90;;;;;;5035400;28;20477;-61
2022/08/02 01:00:18;;;;;;;8.38;4.13;;;16.40;99.90;;;;;;5027609;28;20103;-61
2022/08/02 01:02:44;;;;;;;7.60;3.88;;;16.30;99.90;;;;;;5034637;28;20087;-61
2022/08/02 01:05:10;;;;;;;7.30;3.30;;;16.20;99.90;;;;;;5042967;28;20519;-61
2022/08/02 01:07:36;;;;;;;5.90;3.50;;;16.20;99.90;;;;;;5032611;28;20033;-61
2022/08/02 01:10:03;;;;;;;6.45;3.40;;;16.30;99.90;;;;;;5032016;28;20116;-61
2022/08/02 01:12:29;;;;;;;5.60;3.30;;;16.30;99.90;;;;;;5029639;28;20029;-61
2022/08/02 01:15:00;;;;;;;6.45;3.60;;;16.30;99.90;;;;;;5030774;28;20034;-61
2022/08/02 01:18:04;;;;;;;8.30;3.80;;;16.20;99.90;;;;;;5036591;28;20033;-61
2022/08/02 01:20:43;;;;;;;8.57;3.40;;;16.30;99.90;;;;;;5004937;28;20393;-61
2022/08/02 01:23:41;;;;;;;12.10;4.10;;;16.30;99.90;;;;;;5031477;28;20033;-60
2022/08/02 01:26:37;;;;;;;6.05;3.70;;;16.30;99.90;;;;;;5038955;28;20061;-61
2022/08/02 01:29:21;;;;;;;6.88;3.65;;;16.20;99.90;;;;;;5022386;28;20587;-61
2022/08/02 01:31:58;;;;;;;8.10;3.58;;;16.40;99.90;;;;;;5044561;28;20692;-60
2022/08/02 01:34:35;;;;;;;6.45;3.22;;;16.30;99.90;;;;;;5032202;28;20037;-61
2022/08/02 01:37:11;;;;;;;6.25;3.30;;;16.30;99.90;;;;;;5028094;28;20116;-61
2022/08/02 01:39:39;;;;;;;11.85;4.18;;;16.20;99.90;;;;;;5033363;28;20076;-60
2022/08/02 01:42:06;;;;;;;5.63;3.13;;;16.30;99.90;;;;;;5027098;28;20110;-60
2022/08/02 01:44:34;;;;;;;7.65;3.42;;;16.20;99.90;;;;;;5032765;28;20036;-61
2022/08/02 01:47:05;;;;;;;15.75;3.83;;;16.20;99.90;;;;;;5029955;28;20044;-61
2022/08/02 01:49:33;;;;;;;4.18;3.22;;;16.20;99.90;;;;;;5031696;28;20029;-61
2022/08/02 01:54:51;;;;;;;6.63;3.40;;;16.10;99.90;;;;;;5033396;28;20032;-60
2022/08/02 01:57:19;;;;;;;7.57;3.63;;;16.10;99.90;;;;;;5029964;28;20022;-60
2022/08/02 01:59:47;;;;;;;7.28;3.20;;;16.10;99.90;;;;;;5030397;28;20535;-60
2022/08/02 02:02:15;;;;;;;5.57;3.25;;;16.10;99.90;;;;;;5032482;28;20480;-60
2022/08/02 02:04:42;;;;;;;6.88;3.10;;;16.00;99.90;;;;;;5030641;28;20026;-60
2022/08/02 02:07:09;;;;;;;4.20;3.03;;;16.00;99.90;;;;;;5033588;28;20013;-61
2022/08/02 02:09:38;;;;;;;4.68;3.22;;;16.00;99.90;;;;;;5028220;28;20029;-61
2022/08/02 02:12:06;;;;;;;6.20;3.33;;;16.00;99.90;;;;;;5029067;28;20035;-61
2022/08/02 02:14:33;;;;;;;4.57;3.28;;;16.00;99.90;;;;;;5030310;28;20026;-60
2022/08/02 02:17:01;;;;;;;6.32;3.45;;;16.00;99.90;;;;;;5035999;28;20016;-60
2022/08/02 02:19:27;;;;;;;6.18;3.53;;;16.00;99.90;;;;;;5031551;28;20024;-60
2022/08/02 02:21:54;;;;;;;6.32;3.30;;;16.00;99.90;;;;;;5033010;28;20415;-61
2022/08/02 02:24:19;;;;;;;5.43;3.10;;;16.00;99.90;;;;;;5024842;28;20037;-60
2022/08/02 02:26:46;;;;;;;6.88;3.45;;;15.90;99.90;;;;;;5028725;28;20578;-61
2022/08/02 02:29:13;;;;;;;5.43;3.17;;;15.80;99.90;;;;;;5035680;28;20302;-60
2022/08/02 02:31:41;;;;;;;5.43;3.20;;;15.80;99.90;;;;;;5042109;28;20020;-60
2022/08/02 02:34:13;;;;;;;7.68;3.00;;;15.80;99.90;;;;;;5045642;28;20144;-60
2022/08/02 02:36:40;;;;;;;4.78;2.90;;;15.70;99.90;;;;;;5027176;28;20460;-61
2022/08/02 02:39:09;;;;;;;6.57;3.00;;;15.70;99.90;;;;;;5035277;28;20021;-60
2022/08/02 02:41:37;;;;;;;6.25;3.13;;;15.60;99.90;;;;;;5030658;28;20026;-61
2022/08/02 02:44:05;;;;;;;5.43;3.33;;;15.60;99.90;;;;;;5029516;28;20029;-61
2022/08/02 02:46:32;;;;;;;5.75;3.45;;;15.60;99.90;;;;;;5029203;28;20045;-60
2022/08/02 02:48:59;;;;;;;6.18;3.95;;;15.50;99.90;;;;;;5030886;28;20469;-61
2022/08/02 02:51:25;;;;;;;6.50;3.22;;;15.50;99.90;;;;;;5027020;28;20018;-60
2022/08/02 02:53:52;;;;;;;5.07;3.20;;;15.50;99.90;;;;;;5034061;28;20092;-61
2022/08/02 02:56:18;;;;;;;5.15;3.22;;;15.50;99.90;;;;;;5029490;28;20022;-60
2022/08/02 02:58:45;;;;;;;7.85;3.35;;;15.50;99.90;;;;;;5028763;28;20029;-61
2022/08/02 03:01:28;;;;;;;6.55;3.13;;;15.40;99.90;;;;;;5031534;28;20032;-60
2022/08/02 03:04:00;;;;;;;6.55;3.20;;;15.40;99.90;;;;;;5026921;28;20024;-61
2022/08/02 03:06:26;;;;;;;4.15;3.22;;;15.40;99.90;;;;;;5030886;28;20052;-60
2022/08/02 03:08:52;;;;;;;6.28;3.03;;;15.50;99.90;;;;;;5042839;28;20249;-61
2022/08/02 03:11:18;;;;;;;4.30;2.90;;;15.50;99.90;;;;;;5032692;28;20099;-61
2022/08/02 03:13:44;;;;;;;6.15;2.70;;;15.40;99.90;;;;;;5035213;28;20017;-61
2022/08/02 03:16:10;;;;;;;6.57;2.95;;;15.50;99.90;;;;;;5034632;28;20033;-61
2022/08/02 03:18:42;;;;;;;4.80;3.28;;;15.50;99.90;;;;;;5035369;28;20454;-61
2022/08/02 03:21:11;;;;;;;5.65;3.00;;;15.40;99.90;;;;;;5031662;28;20026;-61
2022/08/02 03:23:39;;;;;;;4.57;3.03;;;15.40;99.90;;;;;;5029523;28;20053;-61
2022/08/02 03:26:05;;;;;;;8.60;3.55;;;15.40;99.90;;;;;;5028643;28;20467;-61
2022/08/02 03:28:31;;;;;;;5.93;3.58;;;15.30;99.90;;;;;;5025603;28;20056;-61
2022/08/02 03:30:57;;;;;;;5.38;3.30;;;15.20;99.90;;;;;;5034307;28;20531;-60
2022/08/02 03:33:24;;;;;;;6.32;3.10;;;15.30;99.90;;;;;;5039606;28;20037;-61
2022/08/02 03:35:52;;;;;;;7.80;3.35;;;15.20;99.90;;;;;;5033592;28;20024;-61
2022/08/02 03:38:21;;;;;;;4.38;3.35;;;15.20;99.90;;;;;;5024647;28;20025;-60
2022/08/02 03:40:48;;;;;;;5.97;3.30;;;15.20;99.90;;;;;;5028148;28;20024;-60
2022/08/02 03:43:15;;;;;;;9.00;3.65;;;15.10;99.90;;;;;;5025426;28;20284;-60
2022/08/02 03:45:47;;;;;;;5.38;3.20;;;15.10;99.90;;;;;;5033818;28;20044;-61
2022/08/02 03:48:14;;;;;;;5.47;3.43;;;15.10;99.90;;;;;;5031423;28;20053;-61
2022/08/02 03:50:41;;;;;;;8.13;3.33;;;15.20;99.90;;;;;;5031262;28;20055;-61
2022/08/02 03:53:07;;;;;;;4.95;3.50;;;15.10;99.90;;;;;;5029791;28;20073;-60
2022/08/02 03:55:34;;;;;;;5.43;3.28;;;15.10;99.90;;;;;;5028623;28;20032;-61
2022/08/02 03:58:00;;;;;;;7.38;3.70;;;15.10;99.90;;;;;;5029061;28;20025;-60
2022/08/02 04:00:26;;;;;;;7.00;3.83;;;15.20;99.90;;;;;;5028597;28;20013;-60
2022/08/02 04:02:52;;;;;;;4.65;3.72;;;15.10;99.90;;;;;;5033204;28;20040;-61
2022/08/02 04:05:18;;;;;;;4.65;3.58;;;15.20;99.90;;;;;;5030212;28;20029;-60
2022/08/02 04:07:44;;;;;;;4.53;3.30;;;15.20;99.90;;;;;;5026878;28;20419;-60
2022/08/02 04:10:10;;;;;;;7.38;3.83;;;15.10;99.90;;;;;;5027331;28;20038;-61
2022/08/02 04:12:36;;;;;;;6.45;3.75;;;15.00;99.90;;;;;;5028219;28;20404;-61
2022/08/02 04:15:04;;;;;;;6.55;3.90;;;15.10;99.90;;;;;;5029656;28;20029;-60
2022/08/02 04:17:32;;;;;;;8.27;3.88;;;15.10;99.90;;;;;;5039515;28;20021;-60
2022/08/02 04:20:03;;;;;;;6.28;3.65;;;15.10;99.90;;;;;;5027112;28;20429;-61
2022/08/02 04:22:44;;;;;;;7.05;3.88;;;15.10;99.90;;;;;;5027266;28;20075;-60
2022/08/02 04:25:10;;;;;;;7.80;4.10;;;15.10;99.90;;;;;;5024684;28;20648;-60
2022/08/02 04:27:36;;;;;;;8.55;4.15;;;15.10;99.90;;;;;;5031123;28;20036;-61
2022/08/02 04:30:04;;;;;;;9.50;4.80;;;15.10;99.90;;;;;;5029201;28;20037;-61
2022/08/02 04:32:30;;;;;;;7.50;4.70;;;15.20;99.90;;;;;;5029777;28;20408;-60
2022/08/02 04:34:57;;;;;;;8.50;4.95;;;15.20;99.90;;;;;;5030070;28;20021;-61
2022/08/02 04:37:22;;;;;;;9.57;4.90;;;15.20;99.90;;;;;;5027691;28;20037;-61
2022/08/02 04:39:48;;;;;;;11.55;5.30;;;15.20;99.90;;;;;;5038815;28;20117;-60
2022/08/02 04:42:21;;;;;;;12.48;5.45;;;15.20;99.90;;;;;;5028605;28;20067;-61
2022/08/02 04:44:47;;;;;;;7.70;4.97;;;15.30;99.90;;;;;;5032509;28;20113;-60
2022/08/02 04:47:12;;;;;;;9.05;5.80;;;15.40;99.90;;;;;;5033131;28;20116;-60
2022/08/02 04:49:38;;;;;;;10.77;5.40;;;15.40;99.90;;;;;;5031174;28;20141;-60
2022/08/02 04:52:03;;;;;;;8.43;5.63;;;15.40;99.90;;;;;;5032484;28;20028;-61
2022/08/02 04:54:29;;;;;;;7.70;5.45;;;15.40;99.90;;;;;;5048559;28;20030;-60
2022/08/02 04:56:55;;;;;;;9.65;5.82;;;15.50;99.90;;;;;;5028348;28;20076;-61
2022/08/02 04:59:21;;;;;;;8.98;6.32;;;15.50;99.90;;;;;;5032186;28;20057;-60
2022/08/02 05:01:46;;;;;;;10.80;6.28;;;15.60;99.90;;;;;;5033399;28;20136;-61
2022/08/02 05:04:12;;;;;;;9.98;6.43;;;15.60;99.90;;;;;;5033958;28;20093;-61
2022/08/02 05:06:38;;;;;;;8.80;6.70;;;15.70;99.90;;;;;;5027134;28;20029;-60
2022/08/02 05:09:04;;;;;;;19.48;7.75;;;15.80;99.90;;;;;;5031340;28;20029;-61
2022/08/02 05:11:30;;;;;;;12.90;7.25;;;15.90;99.90;;;;;;5032549;28;20091;-60
2022/08/02 05:13:55;;;;;;;11.45;7.50;;;15.90;99.90;;;;;;5037730;28;20021;-60
2022/08/02 05:16:21;;;;;;;10.52;7.38;;;16.00;99.90;;;;;;5029565;28;20017;-61
2022/08/02 05:18:47;;;;;;;12.55;7.30;;;16.10;99.90;;;;;;5043516;28;20022;-61
2022/08/02 05:21:13;;;;;;;10.82;7.18;;;16.10;99.90;;;;;;5028579;28;20026;-61
2022/08/02 05:23:38;;;;;;;10.88;8.18;;;16.20;99.90;;;;;;5042025;28;20024;-60
2022/08/02 05:26:04;;;;;;;10.77;7.72;;;16.30;99.90;;;;;;5031739;28;20024;-61
2022/08/02 05:28:30;;;;;;;10.20;7.40;;;16.30;99.90;;;;;;5026934;28;20025;-61
2022/08/02 05:30:55;;;;;;;13.48;7.95;;;16.30;99.90;;;;;;5026677;28;20056;-61
2022/08/02 05:33:21;;;;;;;12.82;7.88;;;16.40;99.90;;;;;;5033050;28;20030;-61
2022/08/02 05:35:46;;;;;;;12.30;8.57;;;16.60;99.90;;;;;;5039828;28;20717;-61
2022/08/02 05:38:12;;;;;;;14.27;8.50;;;16.70;99.90;;;;;;5030009;28;20029;-61
2022/08/02 05:40:38;;;;;;;15.43;9.05;;;16.80;99.90;;;;;;5031739;28;20100;-61
2022/08/02 05:43:11;;;;;;;14.68;9.70;;;17.00;99.90;;;;;;5027874;28;20033;-61
2022/08/02 05:45:37;;;;;;;15.90;10.43;;;17.20;99.90;;;;;;5042504;28;20127;-61
2022/08/02 05:48:03;;;;;;;15.48;9.25;;;;;;;;;;5031542;28;20829;-61
2022/08/02 05:50:30;;;;;;;10.95;9.55;;;17.40;99.90;;;;;;5032837;28;20568;-61
2022/08/02 05:53:00;;;;;;;14.73;9.55;;;;;;;;;;5027793;28;20041;-61
2022/08/02 05:55:27;;;;;;;14.55;10.63;;;17.40;99.90;;;;;;5032862;28;20086;-60
2022/08/02 05:58:10;;;;;;;16.42;10.77;;;17.90;99.90;;;;;;5031246;28;20020;-61
2022/08/02 06:00:39;;;;;;;18.08;11.73;;;18.00;99.90;;;;;;5043048;28;20098;-60
2022/08/02 06:03:35;;;;;;;18.83;11.50;;;18.00;99.90;;;;;;5029919;28;20041;-61
2022/08/02 06:06:05;;;;;;;16.45;11.10;;;;;;;;;;5037973;28;20025;-60
2022/08/02 06:08:40;;;;;;;21.67;10.93;;;18.20;99.90;;;;;;5029830;28;20109;-61
2022/08/02 06:11:11;;;;;;;17.33;11.52;;;18.40;99.90;;;;;;5027662;28;20028;-61
2022/08/02 06:13:37;;;;;;;16.35;11.43;;;18.30;99.90;;;;;;5037727;28;20108;-60
2022/08/02 06:16:03;;;;;;;16.75;11.48;;;18.50;99.90;;;;;;5029608;28;20498;-61
2022/08/02 06:18:32;;;;;;;17.02;11.68;;;;;;;;;;5044891;28;20029;-61
2022/08/02 06:21:03;;;;;;;22.35;11.38;;;18.50;99.90;;;;;;5027841;28;20494;-60
2022/08/02 06:23:31;;;;;;;16.73;10.38;;;18.60;99.90;;;;;;5031230;28;20033;-61
2022/08/02 06:25:58;;;;;;;17.35;10.40;;;18.80;99.90;;;;;;5029191;28;20029;-61
2022/08/02 06:28:26;;;;;;;19.33;10.95;;;;;;;;;;5029451;28;20025;-61
2022/08/02 06:30:52;;;;;;;15.48;9.95;;;18.80;99.90;;;;;;5032277;28;20061;-61
2022/08/02 06:33:18;;;;;;;20.02;11.10;;;19.20;99.90;;;;;;5032871;28;20546;-61
2022/08/02 06:35:47;;;;;;;20.17;10.30;;;;;;;;;;5028764;28;20052;-61
2022/08/02 06:38:24;;;;;;;20.38;10.20;;;19.10;99.90;;;;;;5028798;28;20033;-61
2022/08/02 06:40:51;;;;;;;17.73;9.68;;;;;;;;;;5032315;28;20064;-61
2022/08/02 06:43:31;;;;;;;16.15;10.38;;;;;;;;;;5028203;28;20057;-61
2022/08/02 06:45:59;;;;;;;18.02;9.95;;;;;;;;;;5035104;28;20021;-62
2022/08/02 06:48:27;;;;;;;13.80;9.57;;;;;;;;;;5030082;28;20029;-60
2022/08/02 06:50:55;;;;;;;15.20;9.07;;;19.70;99.90;;;;;;5028180;28;20408;-60
2022/08/02 06:53:20;;;;;;;17.25;9.35;;;19.70;99.90;;;;;;5032570;28;20022;-61
2022/08/02 06:55:46;;;;;;;16.90;8.65;;;;;;;;;;5033477;28;20048;-61
2022/08/02 06:58:13;;;;;;;11.63;9.00;;;19.60;99.90;;;;;;5038494;28;20021;-61
2022/08/02 07:00:40;;;;;;;11.90;8.40;;;;;;;;;;5039503;28;20664;-61
2022/08/02 07:03:06;;;;;;;15.73;8.48;;;19.90;99.90;;;;;;5027084;28;20033;-61
2022/08/02 07:05:31;;;;;;;13.73;8.13;;;20.10;99.90;;;;;;5031601;28;20030;-61
2022/08/02 07:07:57;;;;;;;14.00;7.85;;;20.20;99.90;;;;;;5035430;28;20678;-61
2022/08/02 07:10:23;;;;;;;11.18;7.57;;;20.30;99.90;;;;;;5029868;28;20068;-61
2022/08/02 07:12:49;;;;;;;13.02;7.90;;;20.50;99.90;;;;;;5025534;28;20630;-61
2022/08/02 07:15:15;;;;;;;16.88;9.38;;;20.60;99.90;;;;;;5034306;28;20025;-61
2022/08/02 07:17:40;;;;;;;17.38;8.45;;;20.60;99.90;;;;;;5041257;28;20531;-61
2022/08/02 07:20:08;;;;;;;12.05;8.07;;;20.70;99.90;;;;;;5030728;28;20079;-62
2022/08/02 07:22:34;;;;;;;13.23;7.93;;;20.90;99.90;;;;;;5035976;28;20397;-60
2022/08/02 07:24:59;;;;;;;11.57;7.45;;;20.90;99.90;;;;;;5029763;28;20025;-61
2022/08/02 07:27:26;;;;;;;14.13;7.10;;;21.10;99.90;;;;;;5024159;28;20028;-61
2022/08/02 07:29:53;;;;;;;14.70;8.02;;;21.20;99.90;;;;;;5028600;28;20033;-61
2022/08/02 07:32:25;;;;;;;13.50;7.53;;;21.10;99.90;;;;;;5031081;28;20104;-61
2022/08/02 07:34:51;;;;;;;13.38;7.32;;;21.20;99.90;;;;;;5031116;28;20033;-61
2022/08/02 07:37:17;;;;;;;9.40;7.55;;;21.10;99.90;;;;;;5029581;28;20643;-61
2022/08/02 07:39:43;;;;;;;14.13;7.78;;;21.30;99.90;;;;;;5029943;28;20054;-61
2022/08/02 07:42:08;;;;;;;13.13;7.10;;;21.40;99.90;;;;;;5027762;28;20029;-61
2022/08/02 07:44:34;;;;;;;14.35;6.82;;;21.50;99.90;;;;;;5025839;28;20017;-61
2022/08/02 07:47:03;;;;;;;10.30;5.82;;;21.50;99.90;;;;;;5030625;28;20535;-60
2022/08/02 07:49:29;;;;;;;11.13;6.22;;;21.70;99.90;;;;;;5031171;28;20033;-61
2022/08/02 07:51:56;;;;;;;10.63;5.95;;;21.80;99.90;;;;;;5033697;28;20365;-61
2022/08/02 07:54:21;;;;;;;8.95;5.13;;;21.80;99.90;;;;;;5031133;28;20102;-62
2022/08/02 07:56:48;;;;;;;8.82;5.03;;;;;;;;;;5035580;28;20030;-61
2022/08/02 07:59:14;;;;;;;7.63;4.18;;;;;;;;;;5024759;28;20033;-61
2022/08/02 08:01:41;;;;;;;9.10;4.72;;;;;;;;;;5044797;28;20058;-61
2022/08/02 08:04:09;;;;;;;6.78;4.25;;;22.00;99.90;;;;;;5035209;28;20376;-61
2022/08/02 08:06:36;;;;;;;7.22;3.67;;;;;;;;;;5028949;28;20025;-60
2022/08/02 08:09:03;;;;;;;8.15;4.35;;;;;;;;;;5023375;28;20071;-61
2022/08/02 08:11:31;;;;;;;9.50;3.80;;;;;;;;;;5028067;28;20075;-60
2022/08/02 08:13:57;;;;;;;6.53;3.72;;;;;;;;;;5028368;28;20491;-61
2022/08/02 08:16:25;;;;;;;6.22;3.42;;;;;;;;;;5028912;28;20029;-61
2022/08/02 08:18:53;;;;;;;5.28;3.47;;;;;;;;;;5057881;28;20388;-62
2022/08/02 08:21:18;;;;;;;5.13;2.85;;;22.80;99.90;;;;;;5040892;28;20100;-61
2022/08/02 08:23:44;;;;;;;7.32;4.07;;;22.80;99.90;;;;;;5035187;28;20112;-61
2022/08/02 08:26:10;;;;;;;6.90;3.60;;;22.80;99.90;;;;;;5028195;28;20122;-61
2022/08/02 08:28:35;;;;;;;5.03;3.30;;;22.90;99.90;;;;;;5031395;28;20029;-61
2022/08/02 08:31:01;;;;;;;8.32;4.07;;;23.00;99.90;;;;;;5036859;28;20036;-61
2022/08/02 08:33:26;;;;;;;6.95;3.70;;;23.10;99.90;;;;;;5034144;28;20042;-61
2022/08/02 08:35:53;;;;;;;5.85;3.85;;;23.00;99.90;;;;;;5032983;28;20650;-61
2022/08/02 08:38:19;;;;;;;7.53;3.05;;;23.00;99.90;;;;;;5032372;28;20026;-62
2022/08/02 08:40:48;;;;;;;5.95;3.58;;;;;;;;;;5028262;28;20525;-62
2022/08/02 08:43:15;;;;;;;6.53;3.70;;;;;;;;;;5030941;28;20087;-61
2022/08/02 08:45:45;;;;;;;9.43;3.80;;;;;;;;;;5033263;28;20117;-61
2022/08/02 08:48:14;;;;;;;5.63;3.45;;;;;;;;;;5037447;28;20036;-61
2022/08/02 08:50:46;;;;;;;6.20;3.25;;;;;;;;;;5038411;28;20029;-62
2022/08/02 08:53:15;;;;;;;7.32;3.05;;;;;;;;;;5035429;28;20025;-62
2022/08/02 08:55:43;;;;;;;10.60;4.20;;;;;;;;;;5029162;28;20043;-61
2022/08/02 08:58:10;;;;;;;8.25;4.00;;;23.50;99.90;;;;;;5028953;28;20385;-61
2022/08/02 09:00:36;;;;;;;7.93;3.90;;;23.60;99.90;;;;;;5035508;28;20622;-61
2022/08/02 09:03:07;;;;;;;8.52;3.17;;;23.70;99.90;;;;;;5037334;28;20025;-62
2022/08/02 09:05:40;;;;;;;10.32;3.45;;;23.80;99.90;;;;;;5033817;28;20525;-61
2022/08/02 09:08:06;;;;;;;9.65;4.13;;;23.90;99.90;;;;;;5027027;28;20079;-62
2022/08/02 09:10:37;;;;;;;10.90;3.28;;;24.00;99.90;;;;;;5030538;28;20033;-61
2022/08/02 09:13:28;;;;;;;6.88;3.40;;;24.10;99.90;;;;;;5027048;28;20515;-61
2022/08/02 09:15:58;;;;;;;4.88;3.10;;;24.30;99.90;;;;;;5039043;28;20040;-61
2022/08/02 09:18:39;;;;;;;4.45;2.78;;;24.20;99.90;;;;;;5043212;28;20471;-61
2022/08/02 09:21:07;;;;;;;5.68;3.33;;;24.30;99.90;;;;;;5030677;28;20057;-62
2022/08/02 09:23:41;;;;;;;4.93;2.95;;;24.40;99.90;;;;;;5029951;28;20021;-62
2022/08/02 09:26:10;;;;;;;4.47;3.30;;;24.50;99.90;;;;;;5040373;28;20443;-61
2022/08/02 09:28:38;;;;;;;4.82;3.10;;;24.60;99.90;;;;;;5041086;28;20107;-62
2022/08/02 09:31:10;;;;;;;4.00;3.10;;;24.60;99.90;;;;;;5031991;28;20037;-62
2022/08/02 09:33:38;;;;;;;3.08;2.50;;;24.80;99.90;;;;;;5033394;28;20037;-61
2022/08/02 09:36:06;;;;;;;6.60;2.75;;;24.80;99.90;;;;;;5031370;28;20036;-62
2022/08/02 09:38:32;;;;;;;6.05;2.78;;;24.80;99.90;;;;;;5033561;28;20021;-62
2022/08/02 09:40:59;;;;;;;4.20;2.28;;;24.80;99.90;;;;;;5026597;28;20026;-63
2022/08/02 09:43:39;;;;;;;4.68;2.80;;;24.90;99.90;;;;;;5030463;28;20041;-62
2022/08/02 09:46:15;;;;;;;5.40;2.88;;;25.00;99.90;;;;;;5033013;28;20495;-62
2022/08/02 09:48:55;;;;;;;5.20;2.53;;;24.90;99.90;;;;;;5038091;28;20630;-61
2022/08/02 09:51:33;;;;;;;10.40;3.90;;;24.90;99.90;;;;;;5032357;28;20021;-61
2022/08/02 09:54:01;;;;;;;6.20;2.60;;;24.90;99.90;;;;;;5038027;28;20037;-62
2022/08/02 09:56:37;;;;;;;5.07;2.47;;;24.90;99.90;;;;;;5041797;28;20100;-62
2022/08/02 09:59:06;;;;;;;6.05;3.10;;;25.10;99.90;;;;;;5029196;28;20035;-61
2022/08/02 10:01:32;;;;;;;5.25;2.67;;;24.90;99.90;;;;;;5036714;28;20341;-62
2022/08/02 10:04:03;;;;;;;7.18;2.55;;;24.80;99.90;;;;;;5026676;28;20025;-61
2022/08/02 10:06:29;;;;;;;5.13;2.60;;;24.80;99.90;;;;;;5029186;28;20091;-61
2022/08/02 10:08:54;;;;;;;6.00;2.80;;;24.70;99.90;;;;;;5027949;28;20030;-61
2022/08/02 10:11:25;;;;;;;3.55;2.33;;;24.60;99.90;;;;;;5032553;28;20166;-61
2022/08/02 10:13:51;;;;;;;3.47;2.50;;;24.70;99.90;;;;;;5033093;28;20469;-61
2022/08/02 10:16:20;;;;;;;5.13;2.50;;;24.80;99.90;;;;;;5034480;28;20041;-62
2022/08/02 10:18:46;;;;;;;5.90;2.70;;;24.90;99.90;;;;;;5038960;28;20057;-62
2022/08/02 10:21:17;;;;;;;4.10;2.30;;;25.10;99.90;;;;;;5030604;28;20061;-62
2022/08/02 10:23:44;;;;;;;2.67;2.10;;;25.20;99.90;;;;;;5028648;28;20473;-62
2022/08/02 10:26:14;;;;;;;3.05;2.05;;;25.30;99.90;;;;;;5028060;28;20520;-62
2022/08/02 10:28:44;;;;;;;7.20;2.47;;;25.30;99.90;;;;;;5030326;28;20534;-62
2022/08/02 10:31:10;;;;;;;4.88;2.33;;;25.40;99.90;;;;;;5033000;28;20892;-62
2022/08/02 10:33:38;;;;;;;3.10;2.10;;;25.50;99.90;;;;;;5038282;28;20068;-61
2022/08/02 10:36:07;;;;;;;3.80;2.42;;;25.70;99.90;;;;;;5026676;28;20026;-61
2022/08/02 10:38:33;;;;;;;4.03;2.15;;;26.00;99.90;;;;;;5028652;28;20026;-61
2022/08/02 10:40:59;;;;;;;3.10;2.20;;;26.10;99.90;;;;;;5025981;28;20638;-61
2022/08/02 10:43:31;;;;;;;10.48;3.20;;;26.00;99.90;;;;;;5031453;28;20041;-62
2022/08/02 10:46:34;;;;;;;9.45;2.97;;;25.90;99.90;;;;;;5032815;28;20037;-62
2022/08/02 10:49:07;;;;;;;2.78;2.17;;;25.90;99.90;;;;;;5032178;28;20545;-61
2022/08/02 10:51:52;;;;;;;5.18;2.30;;;25.80;99.90;;;;;;5025908;28;20033;-61
2022/08/02 10:54:21;;;;;;;3.40;2.00;;;25.70;99.90;;;;;;5024504;28;20227;-62
2022/08/02 10:56:51;;;;;;;3.30;2.30;;;25.70;99.90;;;;;;5029533;28;20029;-61
2022/08/02 10:59:26;;;;;;;2.70;1.80;;;25.60;99.90;;;;;;5026826;28;20116;-61
2022/08/02 11:02:00;;;;;;;6.25;2.30;;;25.70;99.90;;;;;;5032034;28;20397;-62
2022/08/02 11:04:47;;;;;;;2.38;2.10;;;25.80;99.90;;;;;;5032927;28;20352;-62
2022/08/02 11:07:17;;;;;;;3.90;1.90;;;25.90;99.90;;;;;;5021357;28;20056;-62
2022/08/02 11:09:45;;;;;;;4.47;2.10;;;26.10;99.90;;;;;;5028216;28;20048;-61
2022/08/02 11:12:16;;;;;;;4.82;2.03;;;26.10;99.90;;;;;;5028368;28;20021;-61
2022/08/02 11:14:45;;;;;;;3.03;2.00;;;26.30;99.90;;;;;;5033312;28;20018;-62
2022/08/02 11:17:16;;;;;;;2.30;2.10;;;26.10;99.90;;;;;;5032937;28;20504;-62
2022/08/02 11:20:20;;;;;;;6.40;2.30;;;26.10;99.90;;;;;;5041917;28;20547;-62
2022/08/02 11:22:47;;;;;;;2.47;2.00;;;26.20;99.90;;;;;;5025230;28;20113;-62
2022/08/02 11:25:25;;;;;;;4.18;2.00;;;26.30;99.90;;;;;;5027274;28;20518;-62
2022/08/02 11:27:52;;;;;;;2.88;1.98;;;26.40;99.90;;;;;;5040928;28;20044;-61
2022/08/02 11:30:19;;;;;;;3.03;1.95;;;26.30;99.90;;;;;;5030927;28;20120;-62
2022/08/02 11:32:45;;;;;;;4.28;2.10;;;26.40;99.90;;;;;;5030413;28;20077;-63
2022/08/02 11:35:10;;;;;;;4.20;1.90;;;26.40;99.90;;;;;;5027648;28;20057;-61
2022/08/02 11:37:38;;;;;;;3.05;1.80;;;26.40;99.90;;;;;;5028525;28;20025;-61
2022/08/02 11:40:07;;;;;;;4.07;1.90;;;26.60;99.90;;;;;;5028763;28;20389;-62
2022/08/02 11:42:44;;;;;;;3.97;2.10;;;26.70;99.90;;;;;;5029526;28;20108;-62
2022/08/02 11:45:12;;;;;;;4.43;2.30;;;26.70;99.90;;;;;;5027990;28;20429;-62
2022/08/02 11:47:49;;;;;;;2.45;2.03;;;26.70;99.90;;;;;;5027234;28;20037;-62
2022/08/02 11:50:16;;;;;;;6.15;2.35;;;26.80;99.90;;;;;;5025981;28;20037;-61
2022/08/02 11:52:42;;;;;;;3.17;2.30;;;26.80;99.90;;;;;;5032673;28;20667;-62
2022/08/02 11:55:09;;;;;;;3.55;2.08;;;26.60;99.90;;;;;;5029874;28;20167;-61
2022/08/02 11:57:35;;;;;;;3.42;2.10;;;26.60;99.90;;;;;;5035096;28;20034;-61
2022/08/02 12:00:01;;;;;;;2.47;2.10;;;26.70;99.90;;;;;;5036845;28;20616;-62
2022/08/02 12:02:30;;;;;;;2.20;1.98;;;26.70;99.90;;;;;;5036599;28;20056;-61
2022/08/02 12:05:01;;;;;;;2.75;2.00;;;26.70;99.90;;;;;;5028519;28;20035;-61
2022/08/02 12:07:34;;;;;;;2.67;2.00;;;26.60;99.90;;;;;;5032749;28;20180;-61
2022/08/02 12:10:13;;;;;;;4.53;2.25;;;26.70;99.90;;;;;;5033797;28;20037;-61
2022/08/02 12:12:53;;;;;;;3.90;2.08;;;26.70;99.90;;;;;;5039118;28;20037;-62
2022/08/02 12:15:41;;;;;;;4.45;1.90;;;26.70;99.90;;;;;;5031743;28;20025;-61
2022/08/02 12:21:19;;;;;;;2.75;1.83;;;26.70;99.90;;;;;;5038917;28;20424;-61
2022/08/02 12:23:45;;;;;;;4.65;2.03;;;26.80;99.90;;;;;;5034117;28;20028;-61
2022/08/02 12:26:10;;;;;;;4.80;2.15;;;26.90;99.90;;;;;;5039139;28;20053;-61
2022/08/02 12:28:38;;;;;;;5.53;2.25;;;26.90;99.90;;;;;;5027181;28;20439;-61
2022/08/02 12:31:06;;;;;;;5.75;2.10;;;26.90;99.90;;;;;;5039679;28;20397;-62
2022/08/02 12:33:52;;;;;;;6.68;2.05;;;26.80;99.90;;;;;;5031106;28;20040;-62
2022/08/02 12:36:23;;;;;;;3.58;2.03;;;26.90;99.90;;;;;;5030906;28;20034;-62
2022/08/02 12:38:56;;;;;;;3.95;2.00;;;27.00;99.90;;;;;;5032589;28;20273;-62
2022/08/02 12:41:23;;;;;;;3.58;1.92;;;27.20;99.90;;;;;;5031153;28;20026;-62
2022/08/02 12:43:50;;;;;;;2.22;1.77;;;27.20;99.90;;;;;;5049137;28;20036;-62
2022/08/02 12:46:21;;;;;;;2.13;1.73;;;27.40;99.90;;;;;;5030465;28;20037;-62
2022/08/02 12:48:46;;;;;;;3.90;1.77;;;27.30;99.90;;;;;;5031763;28;20079;-61
2022/08/02 12:51:27;;;;;;;1.63;1.50;;;27.20;99.90;;;;;;5028719;28;20025;-62
2022/08/02 12:53:56;;;;;;;1.80;1.58;;;27.30;99.90;;;;;;5044003;28;20021;-62
2022/08/02 12:56:30;;;;;;;2.35;1.75;;;27.10;99.90;;;;;;5027236;28;20022;-62
2022/08/02 12:58:56;;;;;;;2.28;1.80;;;27.30;99.90;;;;;;5037268;28;20025;-61
2022/08/02 13:01:24;;;;;;;5.70;1.75;;;27.20;99.90;;;;;;5030210;28;20549;-62
2022/08/02 13:03:50;;;;;;;4.32;1.60;;;27.10;99.90;;;;;;5037122;28;20059;-62
2022/08/02 13:06:17;;;;;;;2.67;1.70;;;27.10;99.90;;;;;;5037670;28;20479;-62
2022/08/02 13:08:43;;;;;;;2.58;1.70;;;27.20;99.90;;;;;;5031567;28;20112;-62